createdAt,value
2018-07-04T00:01:51.318Z,18.60
2018-07-04T00:04:31.954Z,18.50
2018-07-04T00:07:12.355Z,18.50
2018-07-04T00:09:52.647Z,18.50
2018-07-04T00:12:33.009Z,18.40
2018-07-04T00:15:13.389Z,18.40
2018-07-04T00:17:53.716Z,18.40
2018-07-04T00:20:34.149Z,18.30
2018-07-04T00:23:15.279Z,18.20
2018-07-04T00:25:55.476Z,18.20
2018-07-04T00:28:35.983Z,18.20
2018-07-04T00:31:16.337Z,18.10
2018-07-04T00:33:56.805Z,18.00
2018-07-04T00:36:37.035Z,18.00
2018-07-04T00:39:17.498Z,18.00
2018-07-04T00:41:57.777Z,17.90
2018-07-04T00:44:37.974Z,18.00
2018-07-04T00:47:18.295Z,17.90
2018-07-04T00:49:58.699Z,17.90
2018-07-04T00:52:39.154Z,17.80
2018-07-04T00:55:19.427Z,17.80
2018-07-04T00:58:00.416Z,17.70
2018-07-04T01:00:41.432Z,17.60
2018-07-04T01:03:21.930Z,17.60
2018-07-04T01:06:02.310Z,17.60
2018-07-04T01:08:43.361Z,17.50
2018-07-04T01:11:23.646Z,17.50
2018-07-04T01:14:04.649Z,17.40
2018-07-04T01:16:45.038Z,17.40
2018-07-04T01:19:25.457Z,17.40
2018-07-04T01:22:05.731Z,17.40
2018-07-04T01:24:46.063Z,17.30
2018-07-04T01:27:27.706Z,17.30
2018-07-04T01:30:07.889Z,17.30
2018-07-04T01:32:48.518Z,17.20
2018-07-04T01:35:28.918Z,17.20
2018-07-04T01:38:09.180Z,17.20
2018-07-04T01:40:50.432Z,17.20
2018-07-04T01:43:30.640Z,17.10
2018-07-04T01:46:11.667Z,17.10
2018-07-04T01:48:51.983Z,17.10
2018-07-04T01:51:32.252Z,17.00
2018-07-04T01:54:12.898Z,17.10
2018-07-04T01:56:53.229Z,17.00
2018-07-04T01:59:33.593Z,17.00
2018-07-04T02:02:13.699Z,16.90
2018-07-04T02:04:53.935Z,17.00
2018-07-04T02:07:34.501Z,16.90
2018-07-04T02:10:14.672Z,16.90
2018-07-04T02:12:54.880Z,16.90
2018-07-04T02:15:35.028Z,16.80
2018-07-04T02:18:15.211Z,16.80
2018-07-04T02:20:56.887Z,16.70
2018-07-04T02:23:37.218Z,16.70
2018-07-04T02:26:18.111Z,16.70
2018-07-04T02:28:58.313Z,16.60
2018-07-04T02:31:40.616Z,16.60
2018-07-04T02:34:20.779Z,16.60
2018-07-04T02:37:01.007Z,16.50
2018-07-04T02:39:41.286Z,16.50
2018-07-04T02:42:21.618Z,16.30
2018-07-04T02:45:02.741Z,16.20
2018-07-04T02:47:42.946Z,16.20
2018-07-04T02:50:23.296Z,16.20
2018-07-04T02:53:03.440Z,16.20
2018-07-04T02:55:43.671Z,16.20
2018-07-04T02:58:23.949Z,16.20
2018-07-04T03:01:04.185Z,16.20
2018-07-04T03:03:44.451Z,16.10
2018-07-04T03:06:25.576Z,16.10
2018-07-04T03:09:06.614Z,16.00
2018-07-04T03:11:46.749Z,16.00
2018-07-04T03:14:26.971Z,16.00
2018-07-04T03:17:07.927Z,16.00
2018-07-04T03:19:49.283Z,15.90
2018-07-04T03:22:29.478Z,16.00
2018-07-04T03:25:09.776Z,15.90
2018-07-04T03:27:49.932Z,15.90
2018-07-04T03:30:30.242Z,15.90
2018-07-04T03:33:11.098Z,15.90
2018-07-04T03:35:51.520Z,15.90
2018-07-04T03:38:31.816Z,15.90
2018-07-04T03:41:12.479Z,15.90
2018-07-04T03:43:52.854Z,15.90
2018-07-04T03:46:32.902Z,15.90
2018-07-04T03:49:13.119Z,15.90
2018-07-04T03:51:55.153Z,15.90
2018-07-04T03:54:35.365Z,15.90
2018-07-04T03:57:15.610Z,15.90
2018-07-04T03:59:56.332Z,16.00
2018-07-04T04:02:36.670Z,16.00
2018-07-04T04:05:16.963Z,16.00
2018-07-04T04:07:57.326Z,16.10
2018-07-04T04:10:37.674Z,16.10
2018-07-04T04:13:19.031Z,16.20
2018-07-04T04:15:59.204Z,16.20
2018-07-04T04:18:39.544Z,16.30
2018-07-04T04:21:20.007Z,16.30
2018-07-04T04:24:00.331Z,16.30
2018-07-04T04:26:42.881Z,16.30
2018-07-04T04:29:23.227Z,16.40
2018-07-04T04:32:03.370Z,16.40
2018-07-04T04:34:44.398Z,16.40
2018-07-04T04:40:13.455Z,16.40
2018-07-04T04:42:54.188Z,16.50
2018-07-04T04:45:34.485Z,16.50
2018-07-04T04:48:15.711Z,16.60
2018-07-04T04:50:55.789Z,16.60
2018-07-04T04:53:36.059Z,16.50
2018-07-04T04:56:16.255Z,16.60
2018-07-04T04:58:56.856Z,16.50
2018-07-04T05:01:37.312Z,16.40
2018-07-04T05:04:17.472Z,16.50
2018-07-04T05:06:57.659Z,16.60
2018-07-04T05:09:37.881Z,16.60
2018-07-04T05:12:18.142Z,16.70
2018-07-04T05:14:58.255Z,16.80
2018-07-04T05:17:38.475Z,16.90
2018-07-04T05:20:18.729Z,16.90
2018-07-04T05:22:59.021Z,16.90
2018-07-04T05:25:39.248Z,17.00
2018-07-04T05:28:19.636Z,17.00
2018-07-04T05:30:59.882Z,17.20
2018-07-04T05:33:40.246Z,17.30
2018-07-04T05:36:21.212Z,17.70
2018-07-04T05:39:02.312Z,17.80
2018-07-04T05:41:43.197Z,17.80
2018-07-04T05:44:23.431Z,17.80
2018-07-04T05:47:03.523Z,17.90
2018-07-04T05:49:43.736Z,18.00
2018-07-04T05:52:23.827Z,18.10
2018-07-04T05:55:04.149Z,18.30
2018-07-04T05:57:44.491Z,18.40
2018-07-04T06:00:24.789Z,18.50
2018-07-04T06:03:05.165Z,18.70
2018-07-04T06:05:48.273Z,18.90
2018-07-04T06:08:31.735Z,19.10
2018-07-04T06:11:12.132Z,19.20
2018-07-04T06:13:52.658Z,19.30
2018-07-04T06:16:32.932Z,19.50
2018-07-04T06:19:14.243Z,19.60
2018-07-04T06:21:55.386Z,19.60
2018-07-04T06:24:35.741Z,19.70
2018-07-04T06:27:20.012Z,19.70
2018-07-04T06:30:01.225Z,19.80
2018-07-04T06:32:41.580Z,19.90
2018-07-04T06:35:21.869Z,20.10
2018-07-04T06:37:49.728Z,20.20
2018-07-04T06:40:18.322Z,20.40
2018-07-04T06:42:46.156Z,20.30
2018-07-04T06:45:14.877Z,20.60
2018-07-04T06:47:42.718Z,20.50
2018-07-04T06:50:11.339Z,20.70
2018-07-04T06:52:39.232Z,20.70
2018-07-04T06:55:07.071Z,20.80
2018-07-04T06:57:34.935Z,20.90
2018-07-04T07:00:02.805Z,21.00
2018-07-04T07:02:30.674Z,21.00
2018-07-04T07:05:10.984Z,21.10
2018-07-04T07:07:51.648Z,21.20
2018-07-04T07:10:31.821Z,21.20
2018-07-04T07:13:12.895Z,21.40
2018-07-04T07:15:53.110Z,21.40
2018-07-04T07:18:33.312Z,21.30
2018-07-04T07:21:14.561Z,21.40
2018-07-04T07:23:54.732Z,21.40
2018-07-04T07:26:35.088Z,21.50
2018-07-04T07:29:15.202Z,21.50
2018-07-04T07:31:55.418Z,21.60
2018-07-04T07:34:35.899Z,21.70
2018-07-04T07:37:16.055Z,21.80
2018-07-04T07:39:57.094Z,22.10
2018-07-04T07:42:37.281Z,22.10
2018-07-04T07:45:17.555Z,22.00
2018-07-04T07:47:57.726Z,22.00
2018-07-04T07:50:38.086Z,22.10
2018-07-04T07:53:18.494Z,22.10
2018-07-04T07:55:58.514Z,22.10
2018-07-04T07:58:38.526Z,22.30
2018-07-04T08:01:19.799Z,22.50
2018-07-04T08:04:00.633Z,22.70
2018-07-04T08:06:40.850Z,22.70
2018-07-04T08:09:20.926Z,22.70
2018-07-04T08:12:01.213Z,22.80
2018-07-04T08:14:42.002Z,22.80
2018-07-04T08:17:22.166Z,22.80
2018-07-04T08:20:03.051Z,23.10
2018-07-04T08:22:43.381Z,23.10
2018-07-04T08:25:23.712Z,23.20
2018-07-04T08:28:03.933Z,23.30
2018-07-04T08:30:44.194Z,23.40
2018-07-04T08:33:24.476Z,23.50
2018-07-04T08:36:04.441Z,23.70
2018-07-04T08:38:44.589Z,23.90
2018-07-04T08:41:24.812Z,24.00
2018-07-04T08:44:05.167Z,24.10
2018-07-04T08:46:45.306Z,24.30
2018-07-04T08:49:26.511Z,24.40
2018-07-04T08:52:06.728Z,24.30
2018-07-04T08:54:47.087Z,24.40
2018-07-04T08:57:27.211Z,24.50
2018-07-04T09:00:07.833Z,24.60
2018-07-04T09:02:48.914Z,24.60
2018-07-04T09:05:30.544Z,24.60
2018-07-04T09:08:13.207Z,24.60
2018-07-04T09:10:54.211Z,24.50
2018-07-04T09:13:34.554Z,24.50
2018-07-04T09:16:14.794Z,24.40
2018-07-04T09:18:55.918Z,24.80
2018-07-04T09:21:36.245Z,24.80
2018-07-04T09:24:16.431Z,25.00
2018-07-04T09:26:56.622Z,25.20
2018-07-04T09:29:36.841Z,25.30
2018-07-04T09:32:17.059Z,25.50
2018-07-04T09:34:57.351Z,25.70
2018-07-04T09:37:40.501Z,25.60
2018-07-04T09:40:20.595Z,25.90
2018-07-04T09:43:01.833Z,26.10
2018-07-04T09:45:42.164Z,26.10
2018-07-04T09:48:22.159Z,26.30
2018-07-04T09:51:03.160Z,26.50
2018-07-04T09:53:43.574Z,26.90
2018-07-04T09:56:23.749Z,27.30
2018-07-04T09:59:03.964Z,27.70
2018-07-04T10:01:44.323Z,28.20
2018-07-04T10:04:24.765Z,28.40
2018-07-04T10:07:05.622Z,28.70
2018-07-04T10:09:46.037Z,28.70
2018-07-04T10:12:26.216Z,29.20
2018-07-04T10:15:06.453Z,29.60
2018-07-04T10:17:46.657Z,29.70
2018-07-04T10:20:38.807Z,30.00
2018-07-04T10:23:20.244Z,30.40
2018-07-04T10:26:00.404Z,30.40
2018-07-04T10:28:40.548Z,30.70
2018-07-04T10:31:20.805Z,30.90
2018-07-04T10:34:01.123Z,30.90
2018-07-04T10:36:42.216Z,30.80
2018-07-04T10:39:22.561Z,30.80
2018-07-04T10:42:03.120Z,31.10
2018-07-04T10:44:43.434Z,31.30
2018-07-04T10:47:23.761Z,31.40
2018-07-04T10:50:03.970Z,31.80
2018-07-04T10:52:44.354Z,32.10
2018-07-04T10:55:25.794Z,31.90
2018-07-04T10:58:06.082Z,31.90
2018-07-04T11:00:46.283Z,32.00
2018-07-04T11:03:26.604Z,32.30
2018-07-04T11:06:06.961Z,32.40
2018-07-04T11:08:47.579Z,32.50
2018-07-04T11:11:27.879Z,32.60
2018-07-04T11:14:08.283Z,32.80
2018-07-04T11:16:49.123Z,33.30
2018-07-04T11:19:29.493Z,33.30
2018-07-04T11:22:10.206Z,33.60
2018-07-04T11:24:50.639Z,33.40
2018-07-04T11:27:31.516Z,32.90
2018-07-04T11:30:11.825Z,32.90
2018-07-04T11:32:52.046Z,33.30
2018-07-04T11:35:32.958Z,33.70
2018-07-04T11:38:13.236Z,33.70
2018-07-04T11:40:53.484Z,33.20
2018-07-04T11:43:33.792Z,33.00
2018-07-04T11:46:01.662Z,33.00
2018-07-04T11:48:29.533Z,32.90
2018-07-04T11:50:57.473Z,33.10
2018-07-04T11:53:26.120Z,34.20
2018-07-04T11:55:54.544Z,34.20
2018-07-04T11:58:22.384Z,34.40
2018-07-04T12:00:50.283Z,34.30
2018-07-04T12:03:18.133Z,34.30
2018-07-04T12:05:58.645Z,34.40
2018-07-04T12:08:27.413Z,35.00
2018-07-04T12:10:55.638Z,35.00
2018-07-04T12:13:23.525Z,35.30
2018-07-04T12:15:51.355Z,35.20
2018-07-04T12:18:19.189Z,35.30
2018-07-04T12:20:47.119Z,35.00
2018-07-04T12:23:15.840Z,35.00
2018-07-04T12:25:43.710Z,35.00
2018-07-04T12:28:11.562Z,35.00
2018-07-04T12:30:39.443Z,35.10
2018-07-04T12:33:07.327Z,35.20
2018-07-04T12:35:35.185Z,35.60
2018-07-04T12:38:03.075Z,35.40
2018-07-04T12:40:31.194Z,35.40
2018-07-04T12:42:59.084Z,35.20
2018-07-04T12:45:26.914Z,34.40
2018-07-04T12:47:54.940Z,34.20
2018-07-04T12:50:25.564Z,33.60
2018-07-04T12:52:53.701Z,33.80
2018-07-04T12:55:34.469Z,34.20
2018-07-04T12:58:15.099Z,34.60
2018-07-04T13:00:55.439Z,35.10
2018-07-04T13:03:35.738Z,35.40
2018-07-04T13:06:15.922Z,35.20
2018-07-04T13:08:56.944Z,34.80
2018-07-04T13:11:37.339Z,34.80
2018-07-04T13:14:17.495Z,34.90
2018-07-04T13:16:57.688Z,35.00
2018-07-04T13:19:37.808Z,35.00
2018-07-04T13:22:18.046Z,35.00
2018-07-04T13:24:58.158Z,35.20
2018-07-04T13:27:38.632Z,35.20
2018-07-04T13:30:18.841Z,35.20
2018-07-04T13:32:59.136Z,35.40
2018-07-04T13:35:39.462Z,35.40
2018-07-04T13:38:20.351Z,35.60
2018-07-04T13:41:00.560Z,35.60
2018-07-04T13:43:40.796Z,35.80
2018-07-04T13:46:20.855Z,35.40
2018-07-04T13:49:01.097Z,34.70
2018-07-04T13:51:41.293Z,34.60
2018-07-04T13:54:21.569Z,34.50
2018-07-04T13:57:01.836Z,33.90
2018-07-04T13:59:42.860Z,32.70
2018-07-04T14:02:23.678Z,32.70
2018-07-04T14:05:03.890Z,32.80
2018-07-04T14:07:44.234Z,32.60
2018-07-04T14:10:24.512Z,32.70
2018-07-04T14:13:04.872Z,32.70
2018-07-04T14:15:45.100Z,32.40
2018-07-04T14:18:25.274Z,32.30
2018-07-04T14:21:05.710Z,32.50
2018-07-04T14:23:46.362Z,32.70
2018-07-04T14:26:26.771Z,33.00
2018-07-04T14:29:06.991Z,33.20
2018-07-04T14:31:48.047Z,34.00
2018-07-04T14:34:28.540Z,34.00
2018-07-04T14:37:09.715Z,34.50
2018-07-04T14:39:50.570Z,34.20
2018-07-04T14:42:31.688Z,34.20
2018-07-04T14:45:11.843Z,34.20
2018-07-04T14:47:52.147Z,34.50
2018-07-04T14:50:32.538Z,34.40
2018-07-04T14:53:12.885Z,34.30
2018-07-04T14:55:54.038Z,33.60
2018-07-04T14:58:34.350Z,33.70
2018-07-04T15:01:14.767Z,33.40
2018-07-04T15:03:54.970Z,33.00
2018-07-04T15:06:35.267Z,32.70
2018-07-04T15:09:15.484Z,32.40
2018-07-04T15:11:55.629Z,32.20
2018-07-04T15:14:36.661Z,31.90
2018-07-04T15:17:16.979Z,31.80
2018-07-04T15:19:58.252Z,31.80
2018-07-04T15:22:39.455Z,31.80
2018-07-04T15:25:19.702Z,31.90
2018-07-04T15:27:59.974Z,32.10
2018-07-04T15:30:40.112Z,32.30
2018-07-04T15:33:20.504Z,32.00
2018-07-04T15:36:01.611Z,31.50
2018-07-04T15:38:42.957Z,31.50
2018-07-04T15:41:23.747Z,31.30
2018-07-04T15:44:03.956Z,31.10
2018-07-04T15:46:44.149Z,31.00
2018-07-04T15:49:24.570Z,31.00
2018-07-04T15:52:04.866Z,31.10
2018-07-04T15:54:45.207Z,31.30
2018-07-04T15:57:25.566Z,31.60
2018-07-04T16:00:05.764Z,31.50
2018-07-04T16:02:46.115Z,32.00
2018-07-04T16:05:26.388Z,32.80
2018-07-04T16:08:06.571Z,33.00
2018-07-04T16:10:46.588Z,33.30
2018-07-04T16:13:26.891Z,33.50
2018-07-04T16:16:06.963Z,33.20
2018-07-04T16:18:47.294Z,33.00
2018-07-04T16:21:30.032Z,32.70
2018-07-04T16:24:10.274Z,32.90
2018-07-04T16:26:52.172Z,32.70
2018-07-04T16:29:35.314Z,32.50
2018-07-04T16:32:16.187Z,32.20
2018-07-04T16:35:04.178Z,32.20
2018-07-04T16:37:44.239Z,32.30
2018-07-04T16:40:24.814Z,32.50
2018-07-04T16:43:05.911Z,31.50
2018-07-04T16:45:46.251Z,31.50
2018-07-04T16:54:11.677Z,30.90
2018-07-04T16:56:51.977Z,30.90
2018-07-04T16:59:33.194Z,30.80
2018-07-04T17:02:13.626Z,30.50
2018-07-04T17:04:54.040Z,30.50
2018-07-04T17:07:35.134Z,30.50
2018-07-04T17:10:15.467Z,30.50
2018-07-04T17:15:58.823Z,30.60
2018-07-04T17:18:38.976Z,30.60
2018-07-04T17:21:19.114Z,30.90
2018-07-04T17:24:02.292Z,31.10
2018-07-04T17:26:42.655Z,31.30
2018-07-04T17:29:25.542Z,31.40
2018-07-04T17:32:05.828Z,31.20
2018-07-04T17:34:46.829Z,30.80
2018-07-04T17:37:26.979Z,30.70
2018-07-04T17:40:08.468Z,30.50
2018-07-04T17:42:48.827Z,30.40
2018-07-04T17:45:29.343Z,30.20
2018-07-04T17:48:09.602Z,30.00
2018-07-04T17:50:49.898Z,30.00
2018-07-04T17:53:30.950Z,29.80
2018-07-04T17:56:11.074Z,29.80
2018-07-04T17:58:51.391Z,29.70
2018-07-04T18:01:31.682Z,29.60
2018-07-04T18:04:11.947Z,29.60
2018-07-04T18:06:52.288Z,29.50
2018-07-04T18:09:32.571Z,29.60
2018-07-04T18:12:12.845Z,29.80
2018-07-04T18:14:52.979Z,30.00
2018-07-04T18:17:33.185Z,30.40
2018-07-04T18:20:13.539Z,30.90
2018-07-04T18:22:54.581Z,31.60
2018-07-04T18:25:34.875Z,31.50
2018-07-04T18:28:16.098Z,31.90
2018-07-04T18:30:56.505Z,31.90
2018-07-04T18:33:36.827Z,31.80
2018-07-04T18:36:17.404Z,32.00
2018-07-04T18:38:57.696Z,32.10
2018-07-04T18:41:38.593Z,32.00
2018-07-04T18:44:18.730Z,32.00
2018-07-04T18:46:59.589Z,31.80
2018-07-04T18:49:39.993Z,31.80
2018-07-04T18:52:20.311Z,31.70
2018-07-04T18:55:00.680Z,31.50
2018-07-04T18:57:41.947Z,31.20
2018-07-04T19:00:22.364Z,31.20
2018-07-04T19:03:02.556Z,31.00
2018-07-04T19:05:42.876Z,30.80
2018-07-04T19:08:23.483Z,30.50
2018-07-04T19:11:03.702Z,30.20
2018-07-04T19:13:44.058Z,29.80
2018-07-04T19:16:24.263Z,29.40
2018-07-04T19:19:04.530Z,29.00
2018-07-04T19:21:46.172Z,28.30
2018-07-04T19:24:26.318Z,28.30
2018-07-04T19:27:06.559Z,28.00
2018-07-04T19:29:46.766Z,27.80
2018-07-04T19:32:27.047Z,27.50
2018-07-04T19:35:08.061Z,27.20
2018-07-04T19:37:48.389Z,27.20
2018-07-04T19:40:29.329Z,26.90
2018-07-04T19:43:09.542Z,26.90
2018-07-04T19:45:49.888Z,26.70
2018-07-04T19:48:31.018Z,26.50
2018-07-04T19:51:11.166Z,26.50
2018-07-04T19:53:52.455Z,26.40
2018-07-04T19:56:32.687Z,26.30
2018-07-04T19:59:12.839Z,26.10
2018-07-04T20:01:53.079Z,26.00
2018-07-04T20:04:33.826Z,25.90
2018-07-04T20:07:14.055Z,25.80
2018-07-04T20:09:54.486Z,25.70
2018-07-04T20:12:34.792Z,25.60
2018-07-04T20:15:14.875Z,25.50
2018-07-04T20:17:55.339Z,25.40
2018-07-04T20:20:35.789Z,25.30
2018-07-04T20:23:16.948Z,25.10
2018-07-04T20:25:57.134Z,25.10
2018-07-04T20:28:38.285Z,25.00
2018-07-04T20:31:18.317Z,25.00
2018-07-04T20:33:58.441Z,24.90
2018-07-04T20:36:38.695Z,24.90
2018-07-04T20:39:19.197Z,24.90
2018-07-04T20:42:00.215Z,24.80
2018-07-04T20:44:40.650Z,24.70
2018-07-04T20:47:21.748Z,24.60
2018-07-04T20:50:01.946Z,24.60
2018-07-04T20:52:42.346Z,24.60
2018-07-04T20:55:22.672Z,24.50
2018-07-04T20:58:02.967Z,24.40
2018-07-04T21:00:43.249Z,24.40
2018-07-04T21:03:24.467Z,24.30
2018-07-04T21:06:04.664Z,24.20
2018-07-04T21:08:45.633Z,24.20
2018-07-04T21:11:25.848Z,24.20
2018-07-04T21:14:06.223Z,24.10
2018-07-04T21:16:46.367Z,24.10
2018-07-04T21:19:26.524Z,24.00
2018-07-04T21:22:06.801Z,24.00
2018-07-04T21:24:46.931Z,24.00
2018-07-04T21:27:27.208Z,23.90
2018-07-04T21:30:07.444Z,23.90
2018-07-04T21:32:47.927Z,23.80
2018-07-04T21:35:28.396Z,23.80
2018-07-04T21:38:09.455Z,23.70
2018-07-04T21:40:49.768Z,23.70
2018-07-04T21:43:30.053Z,23.70
2018-07-04T21:46:10.400Z,23.70
2018-07-04T21:48:51.374Z,23.60
2018-07-04T21:51:32.446Z,23.50
2018-07-04T21:54:12.780Z,23.50
2018-07-04T21:56:53.084Z,23.50
2018-07-04T21:59:33.184Z,23.40
2018-07-04T22:02:13.418Z,23.40
2018-07-04T22:04:53.696Z,23.40
2018-07-04T22:07:34.139Z,23.40
2018-07-04T22:10:14.610Z,23.30
2018-07-04T22:12:54.673Z,23.30
2018-07-04T22:15:34.951Z,23.30
2018-07-04T22:18:15.082Z,23.20
2018-07-04T22:20:55.275Z,23.20
2018-07-04T22:23:36.380Z,23.20
2018-07-04T22:26:16.499Z,23.20
2018-07-04T22:28:56.653Z,23.20
2018-07-04T22:31:36.721Z,23.10
2018-07-04T22:34:17.925Z,23.10
2018-07-04T22:36:58.094Z,23.10
2018-07-04T22:39:38.995Z,23.10
2018-07-04T22:42:19.137Z,23.00
2018-07-04T22:44:59.399Z,23.00
2018-07-04T22:47:39.455Z,23.00
2018-07-04T22:50:19.756Z,23.00
2018-07-04T22:53:01.611Z,22.90
2018-07-04T22:55:41.926Z,22.90
2018-07-04T22:58:22.068Z,22.90
2018-07-04T23:01:03.981Z,22.90
2018-07-04T23:03:44.454Z,22.80
2018-07-04T23:06:24.755Z,22.90
2018-07-04T23:09:07.777Z,22.80
2018-07-04T23:11:48.373Z,22.80
2018-07-04T23:14:28.580Z,22.70
2018-07-04T23:17:08.736Z,22.70
2018-07-04T23:19:49.688Z,22.70
2018-07-04T23:22:30.967Z,22.60
2018-07-04T23:25:11.392Z,22.60
2018-07-04T23:27:51.639Z,22.50
2018-07-04T23:30:31.870Z,22.50
2018-07-04T23:33:11.989Z,22.40
2018-07-04T23:35:53.067Z,22.40
2018-07-04T23:38:34.151Z,22.30
2018-07-04T23:41:14.507Z,22.30
2018-07-04T23:43:54.760Z,22.30
2018-07-04T23:46:35.183Z,22.30
2018-07-04T23:49:16.403Z,22.20
2018-07-04T23:51:56.680Z,22.20
2018-07-04T23:54:37.124Z,22.10
2018-07-04T23:57:17.490Z,22.10
2018-07-04T23:59:57.567Z,22.10
